Time;durP1;ratioP1;P1;durP2;ratioP2;P2;SDS_P1;SDS_P2;PMS_P1;PMS_P2;Temp;Humidity;BMP_temperature;BMP_pressure;BME280_temperature;BME280_humidity;BME280_pressure;Samples;Min_cycle;Max_cycle;Signal;HPM_P1;HPM_P2
2022/08/13 00:02:18;;;;;;;;;;;;;;;18.63;26.40;95756.25;5011209;28;20411;-72
2022/08/13 00:07:38;;;;;;;;;;;;;;;18.60;26.65;95749.44;5005084;28;19994;-72
2022/08/13 00:10:05;;;;;;;;;;;;;;;18.58;26.31;95758.78;5007102;28;19996;-72
2022/08/13 00:15:16;;;;;;;;;;;;;;;18.50;26.74;95759.88;5007845;28;20095;-73
2022/08/13 00:17:42;;;;;;;;;;;;;;;18.45;26.44;95749.78;5015760;28;20084;-72
2022/08/13 00:20:07;;;;;;;;;;;;;;;18.41;27.26;95757.50;4989023;28;20060;-71
2022/08/13 00:22:33;;;;;;;;;;;;;;;18.42;27.13;95751.06;5011840;28;19989;-71
2022/08/13 00:24:59;;;;;;;;;;;;;;;18.41;26.88;95762.06;5011420;28;20665;-72
2022/08/13 00:27:25;;;;;;;;;;;;;;;18.42;27.07;95761.00;5007179;28;19993;-71
2022/08/13 00:29:54;;;;;;;;;;;;;;;18.34;27.39;95756.75;5019041;28;19980;-71
2022/08/13 00:32:23;;;;;;;;;;;;;;;18.35;27.20;95755.69;5015098;28;20350;-71
2022/08/13 00:34:49;;;;;;;;;;;;;;;18.33;27.43;95752.41;5005733;28;20401;-71
2022/08/13 00:37:14;;;;;;;;;;;;;;;18.29;27.36;95759.31;5012657;28;19969;-72
2022/08/13 00:39:39;;;;;;;;;;;;;;;18.29;27.56;95754.72;4995186;28;19993;-72
2022/08/13 00:42:05;;;;;;;;;;;;;;;18.31;27.48;95749.09;5006777;28;20079;-72
2022/08/13 00:44:31;;;;;;;;;;;;;;;18.30;27.18;95742.91;5013265;28;20068;-72
2022/08/13 00:48:42;;;;;;;;;;;;;;;18.25;27.46;95750.03;5009375;28;20039;-72
2022/08/13 00:49:42;;;;;;;;;;;;;;;18.23;27.31;95750.25;5006444;28;19997;-72
2022/08/13 00:52:10;;;;;;;;;;;;;;;18.21;27.58;95744.25;5007377;28;20425;-72
2022/08/13 00:54:35;;;;;;;;;;;;;;;18.17;27.48;95751.97;5009003;28;20096;-72
2022/08/13 00:57:07;;;;;;;;;;;;;;;18.11;28.00;95743.91;5014652;28;20378;-72
2022/08/13 00:59:33;;;;;;;;;;;;;;;18.11;28.30;95747.44;5011277;28;19997;-72
2022/08/13 01:01:58;;;;;;;;;;;;;;;18.10;27.90;95750.38;5009497;28;20040;-72
2022/08/13 01:04:23;;;;;;;;;;;;;;;18.04;27.86;95744.00;5009680;28;20404;-72
2022/08/13 01:06:49;;;;;;;;;;;;;;;18.02;28.54;95744.22;5007692;28;19994;-72
2022/08/13 01:09:14;;;;;;;;;;;;;;;18.06;27.89;95747.31;4990796;28;20113;-72
2022/08/13 01:11:39;;;;;;;;;;;;;;;18.02;27.68;95746.91;5005393;28;19996;-72
2022/08/13 01:14:07;;;;;;;;;;;;;;;18.00;27.94;95745.50;4990429;28;20021;-72
2022/08/13 01:16:35;;;;;;;;;;;;;;;17.99;28.08;95743.84;5008466;28;20352;-72
2022/08/13 01:19:03;;;;;;;;;;;;;;;18.03;27.92;95740.50;4999261;28;21304;-72
2022/08/13 01:21:30;;;;;;;;;;;;;;;17.90;28.38;95740.63;4988173;28;19985;-72
2022/08/13 01:23:55;;;;;;;;;;;;;;;17.88;28.40;95748.91;5006653;28;20537;-71
2022/08/13 01:26:21;;;;;;;;;;;;;;;17.89;28.23;95747.91;5005055;28;20088;-72
2022/08/13 01:28:47;;;;;;;;;;;;;;;17.89;27.68;95744.38;5016393;28;20005;-72
2022/08/13 01:31:13;;;;;;;;;;;;;;;17.79;28.59;95750.22;5009777;28;20543;-72
2022/08/13 01:33:40;;;;;;;;;;;;;;;17.75;28.23;95747.13;5010070;28;19973;-71
2022/08/13 01:36:06;;;;;;;;;;;;;;;17.71;28.75;95737.84;5005607;28;19973;-72
2022/08/13 01:38:32;;;;;;;;;;;;;;;17.68;28.41;95746.41;5006119;28;20325;-72
2022/08/13 01:40:57;;;;;;;;;;;;;;;17.59;28.71;95748.53;4987879;28;19970;-72
2022/08/13 01:43:25;;;;;;;;;;;;;;;17.55;29.05;95750.03;5007758;28;20498;-72
2022/08/13 01:45:50;;;;;;;;;;;;;;;17.51;29.09;95744.22;5005719;28;19981;-72
2022/08/13 01:50:59;;;;;;;;;;;;;;;17.43;28.86;95749.88;4995532;28;20416;-72
2022/08/13 01:53:25;;;;;;;;;;;;;;;17.40;29.02;95747.63;5006295;28;19977;-72
2022/08/13 01:55:54;;;;;;;;;;;;;;;17.37;29.17;95748.09;4992160;28;20343;-71
2022/08/13 01:58:22;;;;;;;;;;;;;;;17.27;29.76;95749.38;5006400;28;20013;-72
2022/08/13 02:00:49;;;;;;;;;;;;;;;17.07;30.51;95743.28;5004396;28;19976;-72
2022/08/13 02:03:16;;;;;;;;;;;;;;;17.04;30.49;95747.25;5005486;28;20425;-72
2022/08/13 02:05:41;;;;;;;;;;;;;;;16.89;30.54;95747.50;5017491;28;20654;-71
2022/08/13 02:08:07;;;;;;;;;;;;;;;16.84;30.67;95744.66;5008190;28;20589;-71
2022/08/13 02:10:32;;;;;;;;;;;;;;;16.83;30.65;95743.81;5006269;28;19998;-70
2022/08/13 02:12:57;;;;;;;;;;;;;;;16.72;30.91;95741.81;5014560;28;19977;-71
2022/08/13 02:15:23;;;;;;;;;;;;;;;16.59;30.97;95748.09;5004524;28;20385;-71
2022/08/13 02:17:48;;;;;;;;;;;;;;;16.26;31.42;95745.25;5004874;28;20009;-71
2022/08/13 02:20:17;;;;;;;;;;;;;;;16.33;31.62;95745.25;5005871;28;20358;-72
2022/08/13 02:22:45;;;;;;;;;;;;;;;16.38;31.87;95758.06;5004504;28;19993;-72
2022/08/13 02:25:12;;;;;;;;;;;;;;;16.28;31.67;95758.47;5007515;28;20021;-72
2022/08/13 02:27:38;;;;;;;;;;;;;;;16.18;31.75;95756.25;5004097;28;20025;-72
2022/08/13 02:30:03;;;;;;;;;;;;;;;16.26;31.62;95747.94;5013368;28;20503;-72
2022/08/13 02:32:28;;;;;;;;;;;;;;;16.13;31.78;95751.53;5008158;28;19973;-71
2022/08/13 02:34:54;;;;;;;;;;;;;;;16.09;31.78;95749.47;5005661;28;19988;-72
2022/08/13 02:37:21;;;;;;;;;;;;;;;16.28;31.82;95747.75;5015128;28;19970;-71
2022/08/13 02:39:48;;;;;;;;;;;;;;;16.23;31.64;95745.72;4994680;28;20369;-72
2022/08/13 02:42:13;;;;;;;;;;;;;;;16.36;31.48;95741.34;5003704;28;19993;-71
2022/08/13 02:44:39;;;;;;;;;;;;;;;16.54;31.13;95743.34;5005600;28;20002;-72
2022/08/13 02:47:05;;;;;;;;;;;;;;;16.67;30.89;95736.25;5012831;28;19989;-72
2022/08/13 02:49:31;;;;;;;;;;;;;;;16.64;30.98;95742.91;5004728;28;19994;-71
2022/08/13 02:51:56;;;;;;;;;;;;;;;16.67;30.97;95739.78;5014369;28;20029;-71
2022/08/13 02:54:21;;;;;;;;;;;;;;;16.44;31.51;95737.59;5013494;28;20512;-72
2022/08/13 02:56:47;;;;;;;;;;;;;;;16.38;31.65;95739.25;5017115;28;20423;-71
2022/08/13 02:59:12;;;;;;;;;;;;;;;16.44;31.33;95740.28;5012876;28;20659;-72
2022/08/13 03:01:38;;;;;;;;;;;;;;;16.48;31.27;95734.28;5005091;28;19970;-71
2022/08/13 03:04:04;;;;;;;;;;;;;;;16.42;31.64;95732.44;5004968;28;19986;-71
2022/08/13 03:06:29;;;;;;;;;;;;;;;16.39;31.47;95732.88;5004890;28;19994;-71
2022/08/13 03:08:54;;;;;;;;;;;;;;;16.26;31.94;95734.53;5005149;28;20021;-72
2022/08/13 03:11:19;;;;;;;;;;;;;;;16.23;31.87;95734.97;5004320;28;20002;-72
2022/08/13 03:13:52;;;;;;;;;;;;;;;16.13;31.84;95726.50;4987411;28;19977;-72
2022/08/13 03:16:17;;;;;;;;;;;;;;;16.15;31.89;95729.84;5007726;28;19966;-72
2022/08/13 03:18:42;;;;;;;;;;;;;;;16.19;31.86;95731.06;5007508;28;19997;-72
2022/08/13 03:21:08;;;;;;;;;;;;;;;16.05;32.22;95721.38;5005802;28;19989;-72
2022/08/13 03:23:33;;;;;;;;;;;;;;;15.70;32.56;95728.66;5006515;28;20065;-72
2022/08/13 03:25:58;;;;;;;;;;;;;;;15.63;32.89;95741.25;5005048;28;19990;-72
2022/08/13 03:28:25;;;;;;;;;;;;;;;15.78;32.57;95737.53;5012654;28;19977;-72
2022/08/13 03:30:50;;;;;;;;;;;;;;;16.00;31.89;95738.94;5005893;28;20047;-72
2022/08/13 03:33:17;;;;;;;;;;;;;;;16.16;31.50;95734.16;5011756;28;19970;-72
2022/08/13 03:35:42;;;;;;;;;;;;;;;16.20;31.33;95724.63;5003546;28;19993;-72
2022/08/13 03:38:10;;;;;;;;;;;;;;;16.29;30.73;95724.41;5017681;28;19993;-72
2022/08/13 03:43:19;;;;;;;;;;;;;;;16.20;31.20;95724.63;4994275;28;20064;-72
2022/08/13 03:45:45;;;;;;;;;;;;;;;16.16;31.60;95728.78;5007049;28;20517;-72
2022/08/13 03:48:13;;;;;;;;;;;;;;;16.21;30.95;95720.06;5010152;28;19978;-72
2022/08/13 03:50:38;;;;;;;;;;;;;;;16.21;31.35;95726.28;5010054;28;20446;-72
2022/08/13 03:53:03;;;;;;;;;;;;;;;16.23;31.08;95729.59;5011205;28;19980;-72
2022/08/13 03:55:30;;;;;;;;;;;;;;;16.17;31.38;95724.22;5016102;28;19993;-72
2022/08/13 03:57:55;;;;;;;;;;;;;;;16.05;31.81;95716.81;5016596;28;20000;-73
2022/08/13 04:00:22;;;;;;;;;;;;;;;16.00;31.77;95714.78;5006820;28;19978;-72
2022/08/13 04:02:48;;;;;;;;;;;;;;;16.00;31.69;95720.16;5009035;28;20044;-72
2022/08/13 04:05:16;;;;;;;;;;;;;;;15.83;32.23;95725.13;5013878;28;19998;-73
2022/08/13 04:07:41;;;;;;;;;;;;;;;15.76;32.41;95721.63;5007649;28;20185;-73
2022/08/13 04:10:07;;;;;;;;;;;;;;;15.59;32.90;95723.91;5007590;28;19994;-72
2022/08/13 04:12:34;;;;;;;;;;;;;;;15.51;32.67;95722.25;4989311;28;20493;-71
2022/08/13 04:14:59;;;;;;;;;;;;;;;15.65;32.27;95722.25;5012629;28;20446;-71
2022/08/13 04:17:24;;;;;;;;;;;;;;;15.74;32.24;95723.72;5008673;28;19985;-72
2022/08/13 04:19:50;;;;;;;;;;;;;;;15.77;31.74;95720.59;5006058;28;20459;-73
2022/08/13 04:22:15;;;;;;;;;;;;;;;15.81;32.44;95727.19;5011625;28;20072;-72
2022/08/13 04:24:40;;;;;;;;;;;;;;;15.73;32.63;95728.25;5016185;28;20051;-72
2022/08/13 04:27:06;;;;;;;;;;;;;;;15.68;32.82;95720.00;5005870;28;20140;-73
2022/08/13 04:29:31;;;;;;;;;;;;;;;15.62;32.89;95720.81;4992268;28;20004;-72
2022/08/13 04:31:56;;;;;;;;;;;;;;;15.36;33.65;95717.06;5016397;28;19993;-72
2022/08/13 04:34:23;;;;;;;;;;;;;;;15.22;34.04;95714.41;5009973;28;19994;-73
2022/08/13 04:36:48;;;;;;;;;;;;;;;15.31;33.86;95719.56;5016517;28;20442;-72
2022/08/13 04:39:13;;;;;;;;;;;;;;;15.21;34.28;95728.00;5010103;28;19993;-73
2022/08/13 04:41:39;;;;;;;;;;;;;;;15.42;33.68;95724.31;5005753;28;20019;-73
2022/08/13 04:44:04;;;;;;;;;;;;;;;15.66;33.13;95730.09;5014904;28;20096;-72
2022/08/13 04:46:29;;;;;;;;;;;;;;;15.79;33.17;95721.22;5010764;28;19994;-71
2022/08/13 04:48:55;;;;;;;;;;;;;;;15.75;33.15;95734.22;5006462;28;19970;-72
2022/08/13 04:51:20;;;;;;;;;;;;;;;15.66;33.51;95740.00;5012084;28;20000;-72
2022/08/13 04:53:45;;;;;;;;;;;;;;;15.37;34.13;95732.16;5006099;28;20349;-72
2022/08/13 04:56:12;;;;;;;;;;;;;;;15.43;34.23;95730.50;5014045;28;20517;-72
2022/08/13 04:58:37;;;;;;;;;;;;;;;15.51;34.03;95732.16;5010453;28;20506;-72
2022/08/13 05:01:03;;;;;;;;;;;;;;;15.65;33.82;95735.69;5018556;28;20047;-72
2022/08/13 05:03:29;;;;;;;;;;;;;;;15.87;33.51;95731.72;4994972;28;19989;-72
2022/08/13 05:05:54;;;;;;;;;;;;;;;16.11;33.33;95731.25;5019302;28;20029;-72
2022/08/13 05:08:20;;;;;;;;;;;;;;;16.24;32.72;95731.22;5009185;28;19970;-72
2022/08/13 05:10:45;;;;;;;;;;;;;;;16.25;32.80;95740.94;5013228;28;20033;-72
2022/08/13 05:13:24;;;;;;;;;;;;;;;16.28;32.79;95738.88;5014649;28;19989;-72
2022/08/13 05:15:50;;;;;;;;;;;;;;;16.41;32.85;95735.34;5006523;28;20524;-72
2022/08/13 05:18:15;;;;;;;;;;;;;;;16.45;32.59;95737.38;4988991;28;19990;-72
2022/08/13 05:20:40;;;;;;;;;;;;;;;16.67;32.01;95737.09;5007079;28;20301;-72
2022/08/13 05:23:07;;;;;;;;;;;;;;;16.90;31.93;95735.75;5008481;28;20390;-72
2022/08/13 05:25:32;;;;;;;;;;;;;;;17.19;31.01;95736.19;5004945;28;20025;-72
2022/08/13 05:27:58;;;;;;;;;;;;;;;17.29;31.13;95741.09;5007979;28;20028;-72
2022/08/13 05:30:25;;;;;;;;;;;;;;;17.33;31.12;95741.50;4988658;28;19999;-72
2022/08/13 05:32:51;;;;;;;;;;;;;;;17.35;31.45;95744.78;5015054;28;20465;-70
2022/08/13 05:35:16;;;;;;;;;;;;;;;17.55;30.78;95741.94;5007718;28;20085;-70
2022/08/13 05:37:42;;;;;;;;;;;;;;;17.73;30.18;95743.84;5017005;28;20281;-73
2022/08/13 05:40:08;;;;;;;;;;;;;;;17.96;30.33;95741.59;4991862;28;19966;-75
2022/08/13 05:42:34;;;;;;;;;;;;;;;18.18;29.90;95744.69;5015392;28;19993;-74
2022/08/13 05:45:00;;;;;;;;;;;;;;;18.39;29.44;95745.31;5010343;28;20045;-73
2022/08/13 05:47:25;;;;;;;;;;;;;;;18.57;29.77;95744.47;5003883;28;20775;-72
2022/08/13 05:49:51;;;;;;;;;;;;;;;18.71;28.73;95749.69;5009755;28;20494;-73
2022/08/13 05:52:16;;;;;;;;;;;;;;;18.78;29.13;95748.59;5016645;28;20404;-74
2022/08/13 05:54:42;;;;;;;;;;;;;;;18.78;28.88;95751.28;5013155;28;19993;-73
2022/08/13 05:57:07;;;;;;;;;;;;;;;18.95;28.47;95756.03;5013701;28;20650;-74
2022/08/13 06:05:02;;;;;;;;;;;;;;;19.26;28.19;95751.44;5010147;28;20515;-75
2022/08/13 06:07:27;;;;;;;;;;;;;;;19.64;28.42;95751.31;4987032;28;20092;-74
2022/08/13 06:09:52;;;;;;;;;;;;;;;19.85;27.52;95753.44;5015945;28;20052;-73
2022/08/13 06:12:17;;;;;;;;;;;;;;;20.17;27.55;95756.84;5016013;28;20409;-73
2022/08/13 06:14:43;;;;;;;;;;;;;;;20.53;27.39;95749.50;4993160;28;20036;-75
2022/08/13 06:17:09;;;;;;;;;;;;;;;20.81;26.69;95747.94;5001552;28;19977;-72
2022/08/13 06:19:35;;;;;;;;;;;;;;;20.98;26.52;95752.56;4986109;28;20471;-75
2022/08/13 06:22:02;;;;;;;;;;;;;;;21.26;25.79;95748.19;4990467;28;20062;-73
2022/08/13 06:24:32;;;;;;;;;;;;;;;21.44;25.90;95749.06;5014995;28;20492;-74
2022/08/13 06:27:00;;;;;;;;;;;;;;;21.67;25.28;95747.25;4992693;28;20000;-73
2022/08/13 06:29:28;;;;;;;;;;;;;;;21.69;25.18;95753.25;5018358;28;20176;-73
2022/08/13 06:31:54;;;;;;;;;;;;;;;21.86;25.13;95748.63;4988266;28;19989;-73
2022/08/13 06:34:20;;;;;;;;;;;;;;;22.12;24.45;95743.63;4990800;28;20482;-74
2022/08/13 06:36:45;;;;;;;;;;;;;;;22.02;24.66;95747.03;4990172;28;20030;-73
2022/08/13 06:39:11;;;;;;;;;;;;;;;22.28;24.83;95750.09;5005850;28;19989;-75
2022/08/13 06:41:36;;;;;;;;;;;;;;;22.51;24.09;95750.09;4987714;28;20445;-72
2022/08/13 06:44:02;;;;;;;;;;;;;;;22.68;23.85;95760.09;4987545;28;20003;-72
2022/08/13 06:46:28;;;;;;;;;;;;;;;22.82;24.11;95758.63;4992096;28;20644;-73
2022/08/13 06:48:54;;;;;;;;;;;;;;;22.94;23.89;95757.69;5012488;28;20363;-72
2022/08/13 06:51:20;;;;;;;;;;;;;;;23.04;23.46;95750.47;4991245;28;19986;-73
2022/08/13 06:53:45;;;;;;;;;;;;;;;23.16;23.88;95750.34;4989758;28;20574;-74
2022/08/13 06:56:11;;;;;;;;;;;;;;;23.22;23.07;95753.09;4991343;28;19963;-74
2022/08/13 06:58:37;;;;;;;;;;;;;;;23.32;23.09;95757.81;5008465;28;20462;-74
2022/08/13 07:01:02;;;;;;;;;;;;;;;23.34;23.20;95752.94;5009161;28;20068;-74
2022/08/13 07:03:28;;;;;;;;;;;;;;;23.40;23.55;95758.19;5012422;28;20003;-75
2022/08/13 07:05:56;;;;;;;;;;;;;;;23.59;22.96;95757.78;4986988;28;20495;-75
2022/08/13 07:08:22;;;;;;;;;;;;;;;23.82;22.83;95761.25;4987312;28;20399;-74
2022/08/13 07:11:21;;;;;;;;;;;;;;;24.03;22.32;95762.22;5009986;28;20541;-74
2022/08/13 07:13:33;;;;;;;;;;;;;;;24.16;22.25;95765.53;5013876;28;19976;-75
2022/08/13 07:15:58;;;;;;;;;;;;;;;24.18;22.60;95758.78;5011359;28;20335;-76
2022/08/13 07:18:23;;;;;;;;;;;;;;;24.39;22.00;95764.34;5013445;28;19987;-75
2022/08/13 07:20:49;;;;;;;;;;;;;;;24.53;21.96;95767.41;5006974;28;19974;-75
2022/08/13 07:23:14;;;;;;;;;;;;;;;24.68;21.87;95763.13;4986003;28;19975;-75
2022/08/13 07:25:39;;;;;;;;;;;;;;;24.57;21.34;95779.41;4989792;28;20414;-75
2022/08/13 07:28:05;;;;;;;;;;;;;;;24.52;21.39;95765.78;5010183;28;20165;-75
2022/08/13 07:30:31;;;;;;;;;;;;;;;24.60;21.53;95769.09;4998436;28;19979;-74
2022/08/13 07:32:57;;;;;;;;;;;;;;;24.76;21.21;95764.50;5007430;28;20047;-74
2022/08/13 07:35:23;;;;;;;;;;;;;;;24.91;21.01;95772.75;4990630;28;19987;-75
2022/08/13 07:37:50;;;;;;;;;;;;;;;24.79;20.93;95772.16;4991078;28;19963;-75
2022/08/13 07:40:15;;;;;;;;;;;;;;;24.19;21.65;95771.28;4991242;28;19917;-74
2022/08/13 07:42:41;;;;;;;;;;;;;;;24.39;21.23;95767.06;4990252;28;20279;-75
2022/08/13 07:45:07;;;;;;;;;;;;;;;24.83;20.96;95765.91;4991997;28;20098;-73
2022/08/13 07:47:32;;;;;;;;;;;;;;;24.98;21.35;95774.41;4990067;28;19983;-75
2022/08/13 07:50:01;;;;;;;;;;;;;;;25.15;20.81;95769.56;4994191;28;20007;-75
2022/08/13 07:52:26;;;;;;;;;;;;;;;25.43;20.50;95763.88;4990070;28;19957;-74
2022/08/13 07:54:51;;;;;;;;;;;;;;;25.41;20.03;95766.88;4994074;28;20053;-74
2022/08/13 07:57:18;;;;;;;;;;;;;;;25.62;20.00;95772.38;4991265;28;19953;-74
2022/08/13 07:59:43;;;;;;;;;;;;;;;25.73;19.70;95774.00;4993613;28;20825;-75
2022/08/13 08:02:09;;;;;;;;;;;;;;;25.45;20.42;95769.88;5008744;28;19994;-74
2022/08/13 08:04:35;;;;;;;;;;;;;;;25.79;19.70;95763.91;5006778;28;20085;-75
2022/08/13 08:07:01;;;;;;;;;;;;;;;25.89;19.64;95771.28;5006868;28;20067;-75
2022/08/13 08:09:29;;;;;;;;;;;;;;;25.96;19.37;95768.25;5000484;28;19972;-75
2022/08/13 08:14:38;;;;;;;;;;;;;;;26.13;18.92;95768.00;5006286;28;20068;-76
2022/08/13 08:17:05;;;;;;;;;;;;;;;26.08;19.17;95759.81;4989440;28;20443;-74
2022/08/13 08:19:31;;;;;;;;;;;;;;;26.40;19.47;95763.31;4999553;28;19990;-74
2022/08/13 08:21:59;;;;;;;;;;;;;;;26.41;19.11;95760.28;4989178;28;19973;-76
2022/08/13 08:24:25;;;;;;;;;;;;;;;26.74;18.34;95763.47;5010933;28;19969;-70
2022/08/13 08:26:52;;;;;;;;;;;;;;;26.25;18.89;95767.72;5012527;28;19997;-76
2022/08/13 08:29:17;;;;;;;;;;;;;;;26.64;18.86;95763.50;4995021;28;19976;-75
2022/08/13 08:31:44;;;;;;;;;;;;;;;26.64;18.53;95765.44;4988314;28;19973;-75
2022/08/13 08:34:09;;;;;;;;;;;;;;;26.62;18.83;95763.00;5010493;28;19965;-75
2022/08/13 08:36:39;;;;;;;;;;;;;;;26.58;18.99;95767.38;5002879;28;20165;-75
2022/08/13 08:44:32;;;;;;;;;;;;;;;26.67;18.83;95762.13;5010377;28;20343;-75
2022/08/13 08:46:58;;;;;;;;;;;;;;;27.10;18.50;95772.63;4998644;28;19977;-75
2022/08/13 08:49:24;;;;;;;;;;;;;;;27.10;18.28;95778.06;4989036;28;19944;-75
2022/08/13 08:51:49;;;;;;;;;;;;;;;27.64;17.84;95761.91;4984435;28;20633;-74
2022/08/13 08:54:14;;;;;;;;;;;;;;;27.82;17.76;95762.28;4988785;28;20106;-75
2022/08/13 08:56:41;;;;;;;;;;;;;;;27.42;18.30;95754.91;5000404;28;19993;-75
2022/08/13 08:59:07;;;;;;;;;;;;;;;27.84;17.83;95765.56;4989067;28;19986;-75
2022/08/13 09:01:33;;;;;;;;;;;;;;;27.31;18.20;95758.81;5008278;28;20098;-76
2022/08/13 09:03:58;;;;;;;;;;;;;;;27.02;18.65;95754.84;4988181;28;20188;-75
2022/08/13 09:06:24;;;;;;;;;;;;;;;27.03;17.98;95759.25;4985400;28;19980;-75
2022/08/13 09:08:50;;;;;;;;;;;;;;;26.69;18.50;95746.31;5005502;28;19949;-75
2022/08/13 09:11:19;;;;;;;;;;;;;;;26.68;18.73;95752.88;5008843;28;19969;-75
2022/08/13 09:13:47;;;;;;;;;;;;;;;27.35;18.21;95743.47;4989075;28;20096;-76
2022/08/13 09:16:12;;;;;;;;;;;;;;;27.75;18.02;95741.56;4990541;28;19954;-75
2022/08/13 09:18:38;;;;;;;;;;;;;;;27.85;17.90;95742.56;4995617;28;19973;-74
2022/08/13 09:21:03;;;;;;;;;;;;;;;27.81;17.99;95745.06;4990130;28;19980;-75
2022/08/13 09:23:32;;;;;;;;;;;;;;;28.17;17.21;95746.66;4989280;28;20449;-74
2022/08/13 09:25:58;;;;;;;;;;;;;;;28.21;17.20;95750.44;5008026;28;20295;-74
2022/08/13 09:28:23;;;;;;;;;;;;;;;28.11;16.98;95745.06;5007594;28;20043;-75
2022/08/13 09:30:52;;;;;;;;;;;;;;;28.51;16.91;95745.75;4993235;28;19965;-75
2022/08/13 09:33:18;;;;;;;;;;;;;;;28.58;17.00;95748.13;5012857;28;19944;-76
2022/08/13 09:35:43;;;;;;;;;;;;;;;28.47;16.61;95749.34;5000176;28;20357;-76
2022/08/13 09:38:08;;;;;;;;;;;;;;;28.97;16.34;95750.94;5016166;28;19959;-76
2022/08/13 09:40:37;;;;;;;;;;;;;;;28.71;16.68;95745.78;5005625;28;20036;-75
2022/08/13 09:43:05;;;;;;;;;;;;;;;28.62;16.58;95745.63;4986110;28;19991;-76
2022/08/13 09:45:33;;;;;;;;;;;;;;;28.37;16.44;95739.31;5010261;28;19966;-75
2022/08/13 09:47:58;;;;;;;;;;;;;;;28.50;16.86;95738.63;4986847;28;20036;-76
2022/08/13 09:50:24;;;;;;;;;;;;;;;29.03;15.78;95736.88;5011092;28;20489;-75
2022/08/13 09:52:51;;;;;;;;;;;;;;;29.15;16.47;95738.38;4988262;28;19948;-75
2022/08/13 09:55:16;;;;;;;;;;;;;;;29.18;15.62;95735.88;5007381;28;20009;-75
2022/08/13 09:57:48;;;;;;;;;;;;;;;29.11;15.84;95734.59;5004709;28;19971;-76
2022/08/13 10:00:16;;;;;;;;;;;;;;;28.91;16.34;95729.13;4993057;28;20298;-76
2022/08/13 10:02:44;;;;;;;;;;;;;;;29.08;16.52;95726.94;5010786;28;20047;-75
2022/08/13 10:05:09;;;;;;;;;;;;;;;29.31;15.91;95722.53;4993373;28;20013;-75
2022/08/13 10:07:37;;;;;;;;;;;;;;;29.33;15.75;95725.00;5005580;28;20347;-75
2022/08/13 10:10:03;;;;;;;;;;;;;;;29.88;15.53;95726.31;4996039;28;19952;-75
2022/08/13 10:12:28;;;;;;;;;;;;;;;29.94;15.72;95722.34;5001896;28;20379;-74
2022/08/13 10:14:53;;;;;;;;;;;;;;;29.73;15.04;95721.91;4988945;28;19960;-74
2022/08/13 10:17:18;;;;;;;;;;;;;;;30.37;13.70;95718.56;5014189;28;20032;-73
2022/08/13 10:19:44;;;;;;;;;;;;;;;30.37;13.01;95707.56;5006623;28;20439;-75
2022/08/13 10:22:09;;;;;;;;;;;;;;;29.92;14.74;95713.59;5008415;28;19951;-76
2022/08/13 10:24:35;;;;;;;;;;;;;;;30.21;14.40;95707.03;5010312;28;20548;-76
2022/08/13 10:27:00;;;;;;;;;;;;;;;30.23;14.49;95706.75;5013591;28;20374;-74
2022/08/13 10:29:25;;;;;;;;;;;;;;;30.35;14.93;95715.28;5010717;28;20480;-75
2022/08/13 10:31:50;;;;;;;;;;;;;;;30.68;14.91;95706.13;4992708;28;19981;-77
2022/08/13 10:34:22;;;;;;;;;;;;;;;30.58;14.06;95696.16;4989274;28;20022;-74
2022/08/13 10:36:49;;;;;;;;;;;;;;;30.97;13.91;95693.97;5008379;28;20020;-75
2022/08/13 10:39:14;;;;;;;;;;;;;;;31.15;13.93;95697.72;4997088;28;19966;-75
2022/08/13 10:41:41;;;;;;;;;;;;;;;31.45;13.36;95689.84;4996082;28;19956;-76
2022/08/13 10:44:06;;;;;;;;;;;;;;;31.74;13.77;95685.03;4987700;28;20505;-76
2022/08/13 10:46:33;;;;;;;;;;;;;;;31.77;12.80;95680.84;5012378;28;20020;-74
2022/08/13 10:48:58;;;;;;;;;;;;;;;31.98;12.83;95681.13;4997352;28;19917;-74
2022/08/13 10:51:24;;;;;;;;;;;;;;;32.18;13.33;95688.00;4998979;28;19959;-75
2022/08/13 10:53:58;;;;;;;;;;;;;;;32.09;13.53;95687.16;5012917;28;20436;-76
2022/08/13 10:56:24;;;;;;;;;;;;;;;32.42;12.40;95688.75;5012727;28;20004;-75
2022/08/13 10:58:49;;;;;;;;;;;;;;;32.28;12.23;95689.66;4998777;28;20353;-76
2022/08/13 11:01:15;;;;;;;;;;;;;;;32.47;12.82;95683.91;4992059;28;20028;-76
2022/08/13 11:03:44;;;;;;;;;;;;;;;32.40;13.22;95683.56;5016509;28;20020;-75
2022/08/13 11:06:10;;;;;;;;;;;;;;;32.67;12.81;95683.63;4997112;28;20012;-74
2022/08/13 11:08:38;;;;;;;;;;;;;;;32.80;12.58;95682.69;4995843;28;20223;-75
2022/08/13 11:11:04;;;;;;;;;;;;;;;32.92;12.49;95676.53;5009702;28;19929;-75
2022/08/13 11:13:31;;;;;;;;;;;;;;;33.17;11.79;95676.09;5000730;28;19956;-76
2022/08/13 11:15:56;;;;;;;;;;;;;;;33.03;11.48;95679.78;5012080;28;19917;-74
2022/08/13 11:18:21;;;;;;;;;;;;;;;32.94;12.23;95679.78;5002004;28;19925;-75
2022/08/13 11:21:02;;;;;;;;;;;;;;;32.51;12.77;95673.03;5016208;28;20211;-75
2022/08/13 11:23:27;;;;;;;;;;;;;;;32.09;13.77;95662.41;5014647;28;20109;-75
2022/08/13 11:25:53;;;;;;;;;;;;;;;31.78;13.01;95669.50;5003658;28;20181;-75
2022/08/13 11:28:18;;;;;;;;;;;;;;;32.34;12.39;95679.31;4995377;28;20386;-75
2022/08/13 11:30:43;;;;;;;;;;;;;;;32.65;12.13;95672.94;5018845;28;19947;-75
2022/08/13 11:33:08;;;;;;;;;;;;;;;32.40;11.54;95675.28;4986724;28;20452;-76
2022/08/13 11:35:34;;;;;;;;;;;;;;;32.02;12.93;95671.09;5002345;28;20322;-75
2022/08/13 11:38:06;;;;;;;;;;;;;;;32.09;12.21;95657.69;4999082;28;19917;-75
2022/08/13 11:40:31;;;;;;;;;;;;;;;32.42;13.03;95669.47;5003706;28;19924;-76
2022/08/13 11:42:56;;;;;;;;;;;;;;;32.86;11.30;95666.78;5021181;28;19956;-76
2022/08/13 11:45:21;;;;;;;;;;;;;;;32.88;10.96;95665.34;5017407;28;19940;-76
2022/08/13 11:47:48;;;;;;;;;;;;;;;33.18;10.82;95653.69;5007666;28;19962;-75
2022/08/13 11:50:13;;;;;;;;;;;;;;;33.11;12.36;95662.44;4995626;28;19956;-75
2022/08/13 11:52:38;;;;;;;;;;;;;;;33.21;11.18;95652.22;4990252;28;20540;-75
2022/08/13 11:55:04;;;;;;;;;;;;;;;33.69;11.21;95658.66;5008233;28;19980;-76
2022/08/13 11:57:29;;;;;;;;;;;;;;;33.32;10.86;95659.03;5006555;28;20223;-75
2022/08/13 11:59:54;;;;;;;;;;;;;;;33.27;10.50;95661.94;5003291;28;20001;-74
2022/08/13 12:02:20;;;;;;;;;;;;;;;33.13;11.70;95656.59;5012809;28;20278;-75
2022/08/13 12:04:45;;;;;;;;;;;;;;;33.61;10.33;95645.72;5013511;28;19925;-77
2022/08/13 12:07:10;;;;;;;;;;;;;;;33.45;10.32;95648.16;5021186;28;19917;-77
2022/08/13 12:09:36;;;;;;;;;;;;;;;33.30;11.77;95638.44;5016241;28;19955;-74
2022/08/13 12:12:02;;;;;;;;;;;;;;;32.56;12.08;95631.59;5013293;28;20424;-75
2022/08/13 12:14:27;;;;;;;;;;;;;;;32.41;12.05;95645.78;4989316;28;20425;-76
2022/08/13 12:16:52;;;;;;;;;;;;;;;32.46;12.04;95649.22;5017188;28;19943;-77
2022/08/13 12:19:18;;;;;;;;;;;;;;;33.29;10.41;95643.13;4996859;28;19959;-75
2022/08/13 12:21:43;;;;;;;;;;;;;;;32.65;11.72;95644.59;5017374;28;19922;-74
2022/08/13 12:24:08;;;;;;;;;;;;;;;33.30;11.91;95639.22;5011728;28;20037;-75
2022/08/13 12:26:33;;;;;;;;;;;;;;;33.20;10.44;95631.31;5000266;28;19933;-76
2022/08/13 12:28:58;;;;;;;;;;;;;;;33.74;10.59;95633.63;4993845;28;20682;-76
2022/08/13 12:31:24;;;;;;;;;;;;;;;34.22;11.40;95630.84;5012162;28;19932;-75
2022/08/13 12:33:49;;;;;;;;;;;;;;;34.52;11.19;95643.84;4989497;28;20397;-75
2022/08/13 12:36:14;;;;;;;;;;;;;;;34.86;9.81;95630.16;5016029;28;19975;-75
2022/08/13 12:38:39;;;;;;;;;;;;;;;32.50;11.35;95638.38;5019405;28;20232;-77
2022/08/13 12:41:05;;;;;;;;;;;;;;;33.33;10.24;95624.78;5019259;28;19944;-76
2022/08/13 12:43:30;;;;;;;;;;;;;;;32.80;10.24;95627.59;4994855;28;20464;-75
2022/08/13 12:45:57;;;;;;;;;;;;;;;33.52;10.06;95624.44;5013734;28;19925;-75
2022/08/13 12:48:22;;;;;;;;;;;;;;;33.98;10.21;95618.47;4999023;28;19972;-75
2022/08/13 12:50:47;;;;;;;;;;;;;;;34.30;11.51;95607.09;4971391;28;20406;-76
2022/08/13 12:53:13;;;;;;;;;;;;;;;34.05;11.27;95609.66;4994969;28;19947;-75
2022/08/13 12:55:39;;;;;;;;;;;;;;;34.78;9.44;95606.97;4997590;28;19921;-77
2022/08/13 12:58:12;;;;;;;;;;;;;;;34.52;9.35;95599.66;5003031;28;19972;-77
2022/08/13 13:00:37;;;;;;;;;;;;;;;34.54;10.59;95602.91;5003203;28;19913;-74
2022/08/13 13:03:02;;;;;;;;;;;;;;;34.51;10.91;95592.53;4989010;28;19982;-74
2022/08/13 13:05:27;;;;;;;;;;;;;;;34.56;9.35;95597.03;4990819;28;20011;-75
2022/08/13 13:07:53;;;;;;;;;;;;;;;34.94;10.51;95595.31;5016566;28;19962;-76